createdAt,value
2022-10-01T00:00:02.152Z,997.9833684889616
2022-10-01T00:15:05.789Z,997.7864657443574
2022-10-01T00:30:01.946Z,997.6616366591275
2022-10-01T00:45:01.621Z,997.3282655863497
2022-10-01T01:00:02.273Z,997.2327401178518
2022-10-01T01:15:01.882Z,997.0052853239072
2022-10-01T01:30:02.554Z,996.9456257346656
2022-10-01T01:45:02.235Z,996.7343448312067
2022-10-01T02:00:01.896Z,996.371660403528
2022-10-01T02:15:02.583Z,995.9849607106589
2022-10-01T02:30:02.272Z,995.884873457187
2022-10-01T02:45:01.900Z,995.457417097939
2022-10-01T03:00:02.600Z,995.1455367257403
2022-10-01T03:15:02.241Z,994.7741456212406
2022-10-01T03:30:01.979Z,994.446817703933
2022-10-01T03:45:01.610Z,994.3658723729626
2022-10-01T04:00:02.299Z,994.1365180771717
2022-10-01T04:15:01.960Z,993.9447708904694
2022-10-01T04:30:02.200Z,994.0891077975795
2022-10-01T04:45:01.843Z,993.9371968837106
2022-10-01T05:00:02.527Z,993.3702721621183
2022-10-01T05:15:02.134Z,993.3685031599682
2022-10-01T05:30:01.798Z,993.1386793035725
2022-10-01T05:45:02.429Z,993.2339917559381
2022-10-01T06:00:02.044Z,993.1592774759847
2022-10-01T06:15:01.689Z,993.2507142631224
2022-10-01T06:30:02.400Z,993.0977550572369
2022-10-01T06:45:02.080Z,993.298162200863
2022-10-01T07:00:01.728Z,993.3556917614859
2022-10-01T07:15:02.343Z,993.4343402889534
2022-10-01T07:30:02.029Z,993.624903910827
2022-10-01T07:45:01.670Z,993.687932894683
2022-10-01T08:00:02.275Z,993.811474628656
2022-10-01T08:15:01.962Z,993.9346872586724
2022-10-01T08:30:01.668Z,994.0402571728853
2022-10-01T08:45:02.289Z,994.1233586687298
2022-10-01T09:00:01.900Z,994.1484370836919
2022-10-01T09:15:02.549Z,994.4600474290893
2022-10-01T09:30:02.275Z,994.6573212284344
2022-10-01T09:45:01.940Z,994.6538740572397
2022-10-01T10:00:01.641Z,994.8365500016159
2022-10-01T10:15:02.289Z,994.8097396941486
2022-10-01T10:30:01.927Z,994.9928888647712
2022-10-01T10:45:01.544Z,995.0379239531181
2022-10-01T11:00:02.184Z,994.8811282141367
2022-10-01T11:15:01.870Z,995.1265944574728
2022-10-01T11:30:02.570Z,995.2691922872182
2022-10-01T11:45:02.238Z,995.3257426079878
2022-10-01T12:00:01.871Z,995.46569470477
2022-10-01T12:15:06.437Z,995.353897791922
2022-10-01T12:30:01.787Z,995.5232990833118
2022-10-01T12:45:02.432Z,995.6242635430947
2022-10-01T13:00:02.134Z,996.8583477132255
2022-10-01T13:15:01.787Z,996.5037221319076
2022-10-01T13:30:02.488Z,996.8304736706464
2022-10-01T13:45:02.121Z,996.9947849586736
2022-10-01T14:00:01.781Z,997.1050004759429
2022-10-01T14:15:02.475Z,997.367722672072
2022-10-01T14:30:02.154Z,997.5576421499101
2022-10-01T14:45:01.755Z,997.7805386485647
2022-10-01T15:00:02.356Z,998.0586287073944
2022-10-01T15:15:02.007Z,998.1814672677007
2022-10-01T15:30:01.774Z,998.3416937263869
2022-10-01T15:45:02.422Z,998.5855401008134
2022-10-01T16:00:02.111Z,998.8384034330583
2022-10-01T16:15:01.721Z,999.1934172920046
2022-10-01T16:30:05.440Z,999.4105050320499
2022-10-01T16:45:01.582Z,999.7571319208363
2022-10-01T17:00:02.226Z,1000.1381609054532
2022-10-01T17:15:01.897Z,1000.5324263195876
2022-10-01T17:30:01.585Z,1000.6310720124213
2022-10-01T17:45:02.220Z,1000.7613193703557
2022-10-01T18:00:01.867Z,1001.0296240743952
2022-10-01T18:15:02.570Z,1001.4391199083993
2022-10-01T18:30:02.225Z,1001.7362738579653
2022-10-01T18:45:01.885Z,1001.9498426393433
2022-10-01T19:00:02.554Z,1002.1766474208562
2022-10-01T19:15:02.213Z,1002.2647330862148
2022-10-01T19:30:01.856Z,1002.4168670322346
2022-10-01T19:45:02.495Z,1002.57724909653
2022-10-01T20:00:02.100Z,1002.9014398908425
2022-10-01T20:15:01.787Z,1003.2506206358744
2022-10-01T20:30:02.436Z,1003.4766006041325
2022-10-01T20:45:02.117Z,1003.527756820406
2022-10-01T21:00:01.719Z,1003.5696320739048
2022-10-01T21:15:02.389Z,1003.7681121274069
2022-10-01T21:30:02.018Z,1003.7554111318218
2022-10-01T21:45:01.666Z,1003.9276890757443
2022-10-01T22:00:02.453Z,1004.1374203347444
2022-10-01T22:15:02.140Z,1004.159143717568
2022-10-01T22:30:01.754Z,1004.2350356310056
2022-10-01T22:45:02.414Z,1004.2633708121798
2022-10-01T23:00:02.052Z,1004.2925183107343
2022-10-01T23:15:01.689Z,1004.4898687904134
2022-10-01T23:30:02.305Z,1004.590244467837
2022-10-01T23:45:01.897Z,1004.7376679205935
